الصفحة الرئيسية
METAR-TAF:

METAR-TAF

مطار :

Tinian, جزر ماريانا, الولايات المتحدة

دائرة عرض: 14-59N, خط طول: 145-37E, ارتفاع: 82 متر

مراقبة الطقس الحالي

تاريخ ووقت الإصدار 2ساعات و 57 دقيقة قبل الساعة 06:58UTC
ريح 3 عقدة من الشرق
درجة الحرارة 30°درجة مئوية
الرطوبة 75%
ضغط 1010 hPa
الرؤية: 11.3 كم
غيوم قليلة على ارتفاع 1600 قدم
غيوم متفرقة على ارتفاع 8000 قدم
غيوم مفككة على ارتفاع 15000 قدم

METAR: PGWT 220658Z 09003KT 7SM FEW016 SCT080 BKN150 30/25 A2982 RMK LAST

زمن: 19:55 (09:55 UTC)

توقعات

تاريخ ووقت الإصدار 4ساعات و 14 دقيقة قبل الساعة 05:41UTC
التوقعات صالحة من22 الساعة 06 UTC إلى 23 الساعة 06 UTC
ريح 7 عقدة من الشرق/الجنوب الشرقي
الرؤية: 10 كم
غيوم متفرقة على ارتفاع 1500 قدم
غيوم متفرقة على ارتفاع 4000 قدم
غيوم مفككة على ارتفاع 12000 قدم
زخات في الجوار

TAF: PGWT 220541Z 2206/2306 12007KT P6SM VCSH SCT015 SCT040 BKN120

أرصاد الطقس والتوقعات من أكثر من 4000 مطار (تقارير الطقس للمطار METAR والتنبؤ بالطقس بالمطارTAF).

المحطات المتاحة هي النقط الصفراء والحمراء على الخريطة.

حرك المؤشر فوق النقطة لمعرفة اسم المحطة.

ثم انقر لمعرفة أرصاد وتوقعات الطقس.

لتغيير الخارطة: اضغط على الأزرار الخضراء مع رمز الصليب الأسود للتكبير. على الزر الأخضر مع شرطة للتصغير، أو على الأسهم الخضراء للخرائط المجاورة.


METAR-TAF: